Time;durP1;ratioP1;P1;durP2;ratioP2;P2;SDS_P1;SDS_P2;PMS_P1;PMS_P2;Temp;Humidity;BMP_temperature;BMP_pressure;BME280_temperature;BME280_humidity;BME280_pressure;Samples;Min_cycle;Max_cycle;Signal;HPM_P1;HPM_P2
2023/02/03 00:02:00;;;;;;;8.23;5.70;;;0.80;99.90;;;;;;4996480;28;20318;-70
2023/02/03 00:04:27;;;;;;;7.37;5.00;;;0.80;99.90;;;;;;4995311;28;20199;-75
2023/02/03 00:06:55;;;;;;;7.13;4.90;;;0.80;99.90;;;;;;4995246;28;20235;-70
2023/02/03 00:09:22;;;;;;;8.13;4.53;;;0.90;99.90;;;;;;5011361;28;20374;-66
2023/02/03 00:11:49;;;;;;;7.50;4.63;;;0.90;99.90;;;;;;4994672;28;20206;-68
2023/02/03 00:14:16;;;;;;;8.73;4.90;;;0.90;99.90;;;;;;5012480;28;20194;-65
2023/02/03 00:16:43;;;;;;;7.43;4.40;;;1.00;99.90;;;;;;4994853;28;20199;-67
2023/02/03 00:19:10;;;;;;;7.97;4.20;;;0.80;99.90;;;;;;4994837;28;20642;-62
2023/02/03 00:21:37;;;;;;;6.90;4.03;;;0.80;99.90;;;;;;4995747;28;20217;-76
2023/02/03 00:24:04;;;;;;;6.40;4.00;;;0.70;99.90;;;;;;4996811;28;20222;-79
2023/02/03 00:26:31;;;;;;;6.77;4.10;;;0.70;99.90;;;;;;4998298;28;20855;-83
2023/02/03 00:28:59;;;;;;;7.17;3.90;;;0.60;99.90;;;;;;4996608;28;20237;-79
2023/02/03 00:31:26;;;;;;;7.40;3.90;;;0.60;99.90;;;;;;5012809;28;20189;-78
2023/02/03 00:33:55;;;;;;;6.67;4.03;;;0.60;99.90;;;;;;4994837;28;20214;-75
2023/02/03 00:36:22;;;;;;;5.97;3.53;;;0.60;99.90;;;;;;4994559;28;20202;-74
2023/02/03 00:38:49;;;;;;;5.73;3.73;;;0.50;99.90;;;;;;4994797;28;20199;-79
2023/02/03 00:41:17;;;;;;;7.43;3.70;;;0.50;99.90;;;;;;4995250;28;20195;-85
2023/02/03 00:43:45;;;;;;;6.23;3.80;;;0.40;99.90;;;;;;4995748;28;20211;-84
2023/02/03 00:46:12;;;;;;;6.70;3.60;;;0.40;99.90;;;;;;5012913;28;20319;-75
2023/02/03 00:48:39;;;;;;;6.67;3.60;;;0.30;99.90;;;;;;5012000;28;20212;-74
2023/02/03 00:51:06;;;;;;;7.20;3.70;;;0.30;99.90;;;;;;5015290;28;20282;-83
2023/02/03 00:53:33;;;;;;;5.00;3.13;;;0.30;99.90;;;;;;5002881;28;20199;-84
2023/02/03 00:56:00;;;;;;;7.03;3.80;;;0.30;99.90;;;;;;4999270;28;20242;-64
2023/02/03 00:58:27;;;;;;;5.27;3.30;;;0.20;99.90;;;;;;5011286;28;20237;-82
2023/02/03 01:00:55;;;;;;;5.57;3.70;;;0.20;99.90;;;;;;5004709;28;20229;-73
2023/02/03 01:03:23;;;;;;;6.23;3.80;;;0.10;99.90;;;;;;5013785;28;20224;-81
2023/02/03 01:05:50;;;;;;;5.87;3.13;;;0.20;99.90;;;;;;4999004;28;20223;-67
2023/02/03 01:08:17;;;;;;;7.23;3.33;;;0.10;99.90;;;;;;4995873;28;20217;-66
2023/02/03 01:10:44;;;;;;;7.13;3.50;;;0.10;99.90;;;;;;4995489;28;20208;-68
2023/02/03 01:13:11;;;;;;;6.90;3.20;;;0.10;99.90;;;;;;4990888;28;20210;-76
2023/02/03 01:15:44;;;;;;;5.87;3.20;;;0.00;99.90;;;;;;4998150;28;20298;-73
2023/02/03 01:18:11;;;;;;;4.83;3.20;;;0.00;99.90;;;;;;4997782;28;20623;-64
2023/02/03 01:20:38;;;;;;;5.30;3.30;;;0.00;99.90;;;;;;4998008;28;20218;-63
2023/02/03 01:23:05;;;;;;;4.83;3.00;;;0.00;99.90;;;;;;4998071;28;20200;-81
2023/02/03 01:25:34;;;;;;;5.60;3.13;;;0.00;99.90;;;;;;4998097;28;20641;-77
2023/02/03 01:28:01;;;;;;;8.03;3.43;;;0.00;99.90;;;;;;4998934;28;20219;-87
2023/02/03 01:30:28;;;;;;;6.23;3.00;;;0.00;99.90;;;;;;4998900;28;20590;-83
2023/02/03 01:32:55;;;;;;;5.17;3.10;;;0.10;99.90;;;;;;5015473;28;20199;-65
2023/02/03 01:35:22;;;;;;;6.03;3.10;;;0.10;99.90;;;;;;5014536;28;20192;-66
2023/02/03 01:37:49;;;;;;;6.23;3.27;;;0.10;99.90;;;;;;5014729;28;20671;-70
2023/02/03 01:40:16;;;;;;;6.33;3.00;;;0.00;99.90;;;;;;5014871;28;20227;-68
2023/02/03 01:42:43;;;;;;;6.07;3.20;;;0.10;99.90;;;;;;5014784;28;20564;-72
2023/02/03 01:45:10;;;;;;;6.23;3.47;;;0.10;99.90;;;;;;4997827;28;20694;-87
2023/02/03 01:47:48;;;;;;;6.43;3.50;;;0.20;99.90;;;;;;4998008;28;20211;-86
2023/02/03 01:50:29;;;;;;;4.60;3.13;;;0.30;99.90;;;;;;4998977;28;20618;-72
2023/02/03 01:53:00;;;;;;;5.40;3.13;;;0.30;99.90;;;;;;5022097;28;20241;-87
2023/02/03 01:55:33;;;;;;;5.43;3.20;;;0.30;99.90;;;;;;5018576;28;20212;-82
2023/02/03 01:58:14;;;;;;;6.27;3.17;;;0.30;99.90;;;;;;5001617;28;20229;-80
2023/02/03 02:00:42;;;;;;;4.77;2.93;;;0.40;99.90;;;;;;5019217;28;20206;-80
2023/02/03 02:03:10;;;;;;;6.83;2.70;;;0.40;99.90;;;;;;4997681;28;20281;-77
2023/02/03 02:05:59;;;;;;;4.63;3.03;;;0.40;99.90;;;;;;5000533;28;20620;-81
2023/02/03 02:08:27;;;;;;;4.77;2.80;;;0.40;99.90;;;;;;5017461;28;20371;-74
2023/02/03 02:10:54;;;;;;;4.87;2.77;;;0.40;99.90;;;;;;5015806;28;20190;-76
2023/02/03 02:13:22;;;;;;;6.40;2.90;;;0.30;99.90;;;;;;5015377;28;20292;-82
2023/02/03 02:16:14;;;;;;;5.00;2.80;;;0.20;99.90;;;;;;4997011;28;20215;-77
2023/02/03 02:19:03;;;;;;;4.70;2.83;;;0.20;99.90;;;;;;4994212;28;20200;-75
2023/02/03 02:21:57;;;;;;;5.97;2.80;;;0.20;99.90;;;;;;4977546;28;20205;-86
2023/02/03 02:24:44;;;;;;;4.77;2.60;;;0.10;99.90;;;;;;4993520;28;20219;-83
2023/02/03 02:27:27;;;;;;;4.00;2.53;;;0.10;99.90;;;;;;4994872;28;20216;-81
2023/02/03 02:30:24;;;;;;;5.47;3.07;;;0.00;99.90;;;;;;4994800;28;20243;-81
2023/02/03 02:33:04;;;;;;;5.93;2.80;;;0.00;99.90;;;;;;4995049;28;20224;-81
2023/02/03 02:35:52;;;;;;;4.93;2.80;;;0.10;99.90;;;;;;4993490;28;20207;-81
2023/02/03 02:38:33;;;;;;;3.37;2.10;;;0.10;99.90;;;;;;4994512;28;20193;-81
2023/02/03 02:41:22;;;;;;;2.97;2.30;;;0.10;99.90;;;;;;4977668;28;20210;-80
2023/02/03 02:44:06;;;;;;;5.10;2.27;;;0.30;99.90;;;;;;4977624;28;20207;-81
2023/02/03 02:46:42;;;;;;;4.40;2.57;;;0.30;99.90;;;;;;4958568;28;20700;-78
2023/02/03 02:49:34;;;;;;;3.23;2.30;;;0.40;99.90;;;;;;4954117;29;20623;-80
2023/02/03 02:52:04;;;;;;;3.30;2.30;;;0.50;99.90;;;;;;4955469;29;20271;-82
2023/02/03 02:54:36;;;;;;;3.97;2.27;;;0.30;99.90;;;;;;4955601;29;20189;-81
2023/02/03 02:57:04;;;;;;;4.10;2.27;;;0.20;99.90;;;;;;4955260;29;20220;-82
2023/02/03 02:59:31;;;;;;;3.40;2.30;;;0.10;99.90;;;;;;4938421;29;20190;-77
2023/02/03 03:01:58;;;;;;;3.50;2.03;;;0.10;99.90;;;;;;4937983;29;20234;-80
2023/02/03 03:04:28;;;;;;;3.97;2.43;;;0.10;99.90;;;;;;4954049;29;20205;-78
2023/02/03 03:07:13;;;;;;;4.40;1.80;;;0.10;99.90;;;;;;4955125;29;20217;-81
2023/02/03 03:09:44;;;;;;;4.20;2.40;;;0.10;99.90;;;;;;4953863;29;20218;-76
2023/02/03 03:12:14;;;;;;;4.80;2.37;;;0.20;99.90;;;;;;4921878;29;20201;-72
2023/02/03 03:14:54;;;;;;;3.30;2.20;;;0.10;99.90;;;;;;4954142;28;20212;-79
2023/02/03 03:17:28;;;;;;;4.40;2.40;;;0.10;99.90;;;;;;4937787;29;20295;-72
2023/02/03 03:20:00;;;;;;;5.70;2.50;;;0.00;99.90;;;;;;4937882;29;20223;-72
2023/02/03 03:22:33;;;;;;;5.33;2.60;;;0.00;99.90;;;;;;4957078;28;20612;-77
2023/02/03 03:25:08;;;;;;;5.90;2.80;;;0.10;99.90;;;;;;4956583;28;20196;-78
2023/02/03 03:27:39;;;;;;;4.63;3.13;;;0.00;99.90;;;;;;4974169;28;20274;-79
2023/02/03 03:30:17;;;;;;;5.23;3.00;;;-0.10;99.90;;;;;;4956909;28;20224;-79
2023/02/03 03:32:44;;;;;;;6.20;3.53;;;-0.20;99.90;;;;;;4957118;28;20204;-79
2023/02/03 03:35:12;;;;;;;5.93;3.70;;;-0.30;99.90;;;;;;4956405;28;20206;-79
2023/02/03 03:37:49;;;;;;;7.27;3.97;;;-0.20;99.90;;;;;;4956439;28;20633;-78
2023/02/03 03:40:29;;;;;;;6.53;3.73;;;-0.20;99.90;;;;;;4973725;28;20201;-81
2023/02/03 03:43:04;;;;;;;7.80;3.90;;;-0.30;99.90;;;;;;4966055;28;20193;-79
2023/02/03 03:45:39;;;;;;;7.90;4.00;;;-0.30;99.90;;;;;;4963124;28;20236;-80
2023/02/03 03:48:11;;;;;;;6.37;4.07;;;-0.20;99.90;;;;;;4992064;28;20638;-79
2023/02/03 03:50:44;;;;;;;6.30;3.93;;;-0.20;99.90;;;;;;4993110;28;20222;-77
2023/02/03 03:53:14;;;;;;;8.57;4.53;;;-0.40;99.90;;;;;;4995301;28;20194;-78
2023/02/03 03:55:43;;;;;;;6.53;4.30;;;-0.40;99.90;;;;;;4995196;28;20590;-79
2023/02/03 03:58:14;;;;;;;9.60;5.00;;;-0.40;99.90;;;;;;4997794;28;20206;-77
2023/02/03 04:00:43;;;;;;;8.93;5.40;;;-0.50;99.90;;;;;;4996732;28;20679;-78
2023/02/03 04:03:17;;;;;;;12.33;5.33;;;-0.50;99.90;;;;;;4995601;28;20200;-68
2023/02/03 04:05:45;;;;;;;10.07;5.40;;;-0.40;99.90;;;;;;4995522;28;20201;-66
2023/02/03 04:08:12;;;;;;;9.37;5.13;;;-0.60;99.90;;;;;;5012669;28;20198;-66
2023/02/03 04:10:41;;;;;;;8.27;4.97;;;-0.60;99.90;;;;;;5012554;28;20584;-66
2023/02/03 04:13:09;;;;;;;11.97;5.30;;;-0.60;99.90;;;;;;5014168;28;20194;-77
2023/02/03 04:15:37;;;;;;;10.53;5.27;;;-0.70;99.90;;;;;;5012649;28;20642;-73
2023/02/03 04:18:05;;;;;;;9.90;4.73;;;-0.70;99.90;;;;;;5012785;28;20222;-75
2023/02/03 04:20:32;;;;;;;7.03;4.83;;;-0.70;99.90;;;;;;4994728;28;20200;-78
2023/02/03 04:22:59;;;;;;;9.67;5.10;;;-0.70;99.90;;;;;;5012265;28;20218;-77
2023/02/03 04:25:26;;;;;;;8.57;5.10;;;-0.70;99.90;;;;;;5013828;28;20232;-66
2023/02/03 04:27:54;;;;;;;9.53;5.23;;;-0.70;99.90;;;;;;5015884;28;20280;-67
2023/02/03 04:30:21;;;;;;;7.00;5.07;;;-0.80;99.90;;;;;;4998509;28;20296;-66
2023/02/03 04:32:48;;;;;;;8.53;4.57;;;-0.80;99.90;;;;;;4998529;28;20195;-65
2023/02/03 04:35:16;;;;;;;10.10;5.17;;;-0.90;99.90;;;;;;5015774;28;20197;-67
2023/02/03 04:37:42;;;;;;;9.77;4.97;;;-0.90;99.90;;;;;;4998286;28;20197;-68
2023/02/03 04:40:10;;;;;;;10.13;5.57;;;-0.90;99.90;;;;;;4998587;28;20197;-66
2023/02/03 04:42:38;;;;;;;9.83;4.97;;;-0.90;99.90;;;;;;4998251;28;20210;-68
2023/02/03 04:45:07;;;;;;;9.10;5.07;;;-0.90;99.90;;;;;;5015512;28;20223;-66
2023/02/03 04:47:35;;;;;;;8.73;5.10;;;-1.00;99.90;;;;;;4998004;28;20225;-66
2023/02/03 04:50:02;;;;;;;12.20;5.30;;;-1.00;99.90;;;;;;4998107;28;20231;-66
2023/02/03 04:52:29;;;;;;;10.07;5.43;;;-0.90;99.90;;;;;;4997889;28;20723;-71
2023/02/03 04:54:56;;;;;;;8.40;5.33;;;-1.00;99.90;;;;;;5015845;28;20631;-78
2023/02/03 04:57:23;;;;;;;10.17;5.60;;;-1.00;99.90;;;;;;4998382;28;20338;-77
2023/02/03 04:59:50;;;;;;;9.77;5.50;;;-1.00;99.90;;;;;;4998740;28;20214;-78
2023/02/03 05:02:16;;;;;;;9.50;5.50;;;-0.90;99.90;;;;;;4998275;28;20227;-77
2023/02/03 05:04:43;;;;;;;8.37;5.50;;;-0.90;99.90;;;;;;4998534;28;20234;-77
2023/02/03 05:07:10;;;;;;;9.60;5.27;;;-0.90;99.90;;;;;;4997847;28;20656;-73
2023/02/03 05:09:37;;;;;;;9.97;5.10;;;-1.00;99.90;;;;;;4997800;28;20226;-77
2023/02/03 05:12:04;;;;;;;8.97;4.80;;;-1.00;99.90;;;;;;4997766;28;20566;-78
2023/02/03 05:14:31;;;;;;;8.67;4.83;;;-1.00;99.90;;;;;;4998163;28;20319;-76
2023/02/03 05:16:58;;;;;;;8.03;4.83;;;-1.00;99.90;;;;;;4997701;28;20336;-78
2023/02/03 05:19:25;;;;;;;7.13;4.37;;;-1.00;99.90;;;;;;5015460;28;20648;-79
2023/02/03 05:21:52;;;;;;;8.83;4.67;;;-1.00;99.90;;;;;;4997819;28;20246;-78
2023/02/03 05:24:18;;;;;;;8.57;4.60;;;-1.00;99.90;;;;;;5015686;28;20204;-78
2023/02/03 05:26:45;;;;;;;8.97;4.73;;;-1.10;99.90;;;;;;5015100;28;20193;-77
2023/02/03 05:29:12;;;;;;;9.90;4.67;;;-1.10;99.90;;;;;;4997681;28;20696;-78
2023/02/03 05:31:39;;;;;;;8.13;4.53;;;-1.00;99.90;;;;;;4997913;28;20533;-78
2023/02/03 05:34:06;;;;;;;7.70;4.47;;;-1.00;99.90;;;;;;5015507;28;20723;-78
2023/02/03 05:36:33;;;;;;;7.23;4.60;;;-1.00;99.90;;;;;;4996595;28;20197;-79
2023/02/03 05:39:00;;;;;;;7.07;4.53;;;-1.00;99.90;;;;;;5014981;28;20214;-65
2023/02/03 05:44:12;;;;;;;9.50;4.57;;;-1.00;99.90;;;;;;4997207;28;20550;-67
2023/02/03 05:46:39;;;;;;;6.93;4.27;;;-1.10;99.90;;;;;;4996691;28;20235;-67
2023/02/03 05:49:06;;;;;;;8.13;4.30;;;-1.00;99.90;;;;;;5014707;28;20309;-67
2023/02/03 05:51:32;;;;;;;7.97;4.30;;;-1.00;99.90;;;;;;4996791;28;20205;-67
2023/02/03 05:53:59;;;;;;;10.93;4.10;;;-1.00;99.90;;;;;;4996638;28;20198;-70
2023/02/03 05:56:26;;;;;;;7.17;4.30;;;-1.00;99.90;;;;;;4997053;28;20188;-67
2023/02/03 05:58:53;;;;;;;8.03;4.33;;;-1.10;99.90;;;;;;4997174;28;20204;-67
2023/02/03 06:01:20;;;;;;;8.53;4.33;;;-1.00;99.90;;;;;;5014548;28;20599;-66
2023/02/03 06:03:47;;;;;;;9.27;4.90;;;-1.10;99.90;;;;;;4996837;28;20222;-66
2023/02/03 06:06:15;;;;;;;9.77;4.77;;;-1.00;99.90;;;;;;4996919;28;20599;-76
2023/02/03 06:08:42;;;;;;;8.17;4.73;;;-1.10;99.90;;;;;;4996911;28;20203;-72
2023/02/03 06:11:10;;;;;;;11.53;4.77;;;-1.00;99.90;;;;;;4996767;28;20198;-78
2023/02/03 06:13:37;;;;;;;8.80;4.90;;;-1.00;99.90;;;;;;4996842;28;20239;-79
2023/02/03 06:16:04;;;;;;;9.70;4.77;;;-1.00;99.90;;;;;;4996495;28;20640;-79
2023/02/03 06:18:31;;;;;;;9.37;5.07;;;-1.00;99.90;;;;;;4996981;28;20205;-68
2023/02/03 06:20:58;;;;;;;9.20;4.80;;;-1.00;99.90;;;;;;5015156;28;20215;-75
2023/02/03 06:23:25;;;;;;;11.43;5.00;;;-1.00;99.90;;;;;;4996677;28;20218;-73
2023/02/03 06:25:52;;;;;;;11.30;4.53;;;-1.00;99.90;;;;;;4996697;28;20209;-75
2023/02/03 06:28:18;;;;;;;11.53;5.37;;;-1.10;99.90;;;;;;4996751;28;20253;-78
2023/02/03 06:30:49;;;;;;;9.63;4.97;;;-1.00;99.90;;;;;;5014001;28;20216;-79
2023/02/03 06:33:16;;;;;;;8.10;4.60;;;-1.00;99.90;;;;;;5014194;28;20189;-80
2023/02/03 06:35:42;;;;;;;9.53;4.97;;;-1.00;99.90;;;;;;4996649;28;20208;-81
2023/02/03 06:38:10;;;;;;;9.40;5.10;;;-1.00;99.90;;;;;;4995973;28;20203;-79
2023/02/03 06:40:37;;;;;;;11.70;5.93;;;-0.90;99.90;;;;;;5014349;28;20205;-78
2023/02/03 06:43:03;;;;;;;9.60;5.60;;;-0.90;99.90;;;;;;4996230;28;20283;-78
2023/02/03 06:45:30;;;;;;;11.53;5.60;;;-0.90;99.90;;;;;;4995894;28;20237;-74
2023/02/03 06:47:57;;;;;;;12.67;6.20;;;-1.00;99.90;;;;;;4995865;28;20644;-76
2023/02/03 06:50:24;;;;;;;9.77;5.33;;;-1.00;99.90;;;;;;4995977;28;20678;-77
2023/02/03 06:52:51;;;;;;;9.33;4.90;;;-1.00;99.90;;;;;;4995937;28;20211;-80
2023/02/03 06:55:18;;;;;;;13.30;5.87;;;-1.00;99.90;;;;;;4996353;28;20718;-79
2023/02/03 06:57:46;;;;;;;11.80;5.43;;;-1.00;99.90;;;;;;4996033;28;20197;-69
2023/02/03 07:00:15;;;;;;;11.83;5.07;;;-1.00;99.90;;;;;;4995849;28;20208;-71
2023/02/03 07:02:45;;;;;;;10.57;5.13;;;-0.90;99.90;;;;;;5013819;28;20297;-75
2023/02/03 07:05:12;;;;;;;9.30;5.00;;;-0.90;99.90;;;;;;5014370;28;20598;-84
2023/02/03 07:07:39;;;;;;;8.97;4.87;;;-0.90;99.90;;;;;;4996460;28;20658;-78
2023/02/03 07:10:07;;;;;;;9.77;4.77;;;-0.80;99.90;;;;;;5002895;28;20578;-66
2023/02/03 07:12:35;;;;;;;11.83;5.17;;;-0.80;99.90;;;;;;5002758;28;20664;-78
2023/02/03 07:15:06;;;;;;;11.13;4.90;;;-0.80;99.90;;;;;;4996037;28;20207;-69
2023/02/03 07:17:32;;;;;;;8.30;4.67;;;-0.70;99.90;;;;;;4969012;28;20202;-71
2023/02/03 07:19:59;;;;;;;8.40;4.90;;;-0.70;99.90;;;;;;4998085;28;20204;-75
2023/02/03 07:22:26;;;;;;;13.57;4.90;;;-0.60;99.90;;;;;;4985314;28;20290;-67
2023/02/03 07:24:53;;;;;;;10.13;4.53;;;-0.60;99.90;;;;;;5000500;28;20538;-70
2023/02/03 07:27:20;;;;;;;9.10;4.90;;;-0.60;99.90;;;;;;5012592;28;20271;-66
2023/02/03 07:29:47;;;;;;;10.40;4.90;;;-0.50;99.90;;;;;;4998679;28;20305;-71
2023/02/03 07:32:14;;;;;;;11.93;4.73;;;-0.50;99.90;;;;;;4992723;28;20673;-71
2023/02/03 07:34:41;;;;;;;8.37;4.17;;;-0.40;99.90;;;;;;4994814;28;20227;-72
2023/02/03 07:37:08;;;;;;;7.80;4.20;;;-0.30;99.90;;;;;;5012266;28;20576;-67
2023/02/03 07:39:34;;;;;;;11.17;4.73;;;-0.30;99.90;;;;;;4994897;28;20287;-69
2023/02/03 07:42:01;;;;;;;6.97;3.90;;;-0.30;99.90;;;;;;4993877;28;20307;-72
2023/02/03 07:44:28;;;;;;;6.47;4.10;;;-0.20;99.90;;;;;;4999754;28;20583;-74
2023/02/03 07:46:55;;;;;;;8.43;4.17;;;-0.20;99.90;;;;;;5031115;28;20240;-69
2023/02/03 07:49:22;;;;;;;7.10;3.87;;;-0.10;99.90;;;;;;5031041;28;20204;-75
2023/02/03 07:51:49;;;;;;;6.87;3.70;;;0.10;99.90;;;;;;5014236;28;20722;-76
2023/02/03 07:54:16;;;;;;;9.70;4.33;;;0.10;99.90;;;;;;5014848;28;20572;-82
2023/02/03 07:56:43;;;;;;;7.47;3.93;;;0.20;99.90;;;;;;5015756;28;20208;-82
2023/02/03 07:59:10;;;;;;;8.13;3.93;;;0.30;99.90;;;;;;5015581;28;20285;-81
2023/02/03 08:01:37;;;;;;;10.90;4.37;;;0.50;99.90;;;;;;5018397;28;20261;-77
2023/02/03 08:04:04;;;;;;;8.07;4.00;;;0.60;99.90;;;;;;5019000;28;20202;-79
2023/02/03 08:06:31;;;;;;;8.70;3.97;;;0.90;99.90;;;;;;5018632;28;20201;-78
2023/02/03 08:08:58;;;;;;;6.37;3.53;;;1.00;99.90;;;;;;5018818;28;20295;-79
2023/02/03 08:11:25;;;;;;;6.10;3.57;;;1.30;99.90;;;;;;5018465;28;20747;-77
2023/02/03 08:13:52;;;;;;;7.43;4.10;;;1.40;99.90;;;;;;5018408;28;20291;-75
2023/02/03 08:16:19;;;;;;;7.87;3.90;;;1.50;99.90;;;;;;5018084;28;20570;-74
2023/02/03 08:18:46;;;;;;;7.60;3.80;;;1.40;99.90;;;;;;5036037;28;20198;-73
2023/02/03 08:21:13;;;;;;;7.77;3.90;;;1.30;99.90;;;;;;5018485;28;20293;-72
2023/02/03 08:23:40;;;;;;;9.37;4.60;;;1.30;99.90;;;;;;5018119;28;20645;-74
2023/02/03 08:26:07;;;;;;;7.17;3.97;;;1.30;99.90;;;;;;5018507;28;20217;-71
2023/02/03 08:28:34;;;;;;;10.17;4.30;;;1.40;99.90;;;;;;5036048;28;20195;-71
2023/02/03 08:31:07;;;;;;;11.07;4.43;;;1.40;99.90;;;;;;5018173;28;20571;-72
2023/02/03 08:33:34;;;;;;;11.60;4.67;;;1.30;99.90;;;;;;5018015;28;20234;-71
2023/02/03 08:36:19;;;;;;;8.23;4.20;;;1.50;99.90;;;;;;5017738;28;20186;-78
2023/02/03 08:38:46;;;;;;;8.73;4.23;;;1.60;99.90;;;;;;5035708;28;20271;-75
2023/02/03 08:41:16;;;;;;;7.03;4.00;;;1.40;99.90;;;;;;5018104;28;20232;-77
2023/02/03 08:43:44;;;;;;;8.27;4.77;;;1.40;99.90;;;;;;5017759;28;20553;-79
2023/02/03 08:46:11;;;;;;;8.80;4.33;;;1.50;99.90;;;;;;5017506;28;20234;-78
2023/02/03 08:48:38;;;;;;;8.80;4.47;;;1.70;99.90;;;;;;5017851;28;20221;-78
2023/02/03 08:51:13;;;;;;;8.40;4.20;;;1.80;99.90;;;;;;5035687;28;20219;-77
2023/02/03 08:53:40;;;;;;;9.23;4.10;;;2.10;99.90;;;;;;5017387;28;20237;-72
2023/02/03 08:56:10;;;;;;;9.90;3.93;;;2.20;99.90;;;;;;5017459;28;20203;-77
2023/02/03 08:58:38;;;;;;;7.57;4.17;;;2.30;99.90;;;;;;5017528;28;20200;-72
2023/02/03 09:01:09;;;;;;;7.57;4.13;;;2.40;99.90;;;;;;5017498;28;20215;-75
2023/02/03 09:03:37;;;;;;;8.10;4.10;;;2.60;99.90;;;;;;5035068;28;20598;-76
2023/02/03 09:06:05;;;;;;;6.67;3.70;;;2.60;99.90;;;;;;5017380;28;20195;-73
2023/02/03 09:08:32;;;;;;;6.67;4.00;;;2.60;99.90;;;;;;5017416;28;20199;-76
2023/02/03 09:10:59;;;;;;;6.63;3.77;;;2.60;99.90;;;;;;5017010;28;20223;-76
2023/02/03 09:13:26;;;;;;;7.33;3.67;;;2.30;99.90;;;;;;5035112;28;20216;-72
2023/02/03 09:15:53;;;;;;;6.60;3.77;;;2.20;99.90;;;;;;5000893;28;20210;-70
2023/02/03 09:18:20;;;;;;;7.57;4.37;;;2.10;99.90;;;;;;5017267;28;20203;-78
2023/02/03 09:20:46;;;;;;;7.67;3.97;;;2.00;99.90;;;;;;5034963;28;20202;-74
2023/02/03 09:23:14;;;;;;;8.03;3.60;;;2.10;99.90;;;;;;5017081;28;20191;-75
2023/02/03 09:25:40;;;;;;;8.17;3.43;;;2.00;99.90;;;;;;5016778;28;20668;-71
2023/02/03 09:28:12;;;;;;;8.83;3.30;;;2.10;99.90;;;;;;5017284;28;20555;-75
2023/02/03 09:30:39;;;;;;;6.43;3.20;;;2.20;99.90;;;;;;5034644;28;20212;-77
2023/02/03 09:33:06;;;;;;;4.57;2.60;;;2.20;99.90;;;;;;5034563;28;20198;-78
2023/02/03 09:35:32;;;;;;;7.63;3.03;;;2.20;99.90;;;;;;5016645;28;20219;-72
2023/02/03 09:38:00;;;;;;;5.10;3.10;;;2.20;99.90;;;;;;5017075;28;20202;-76
2023/02/03 09:40:32;;;;;;;5.87;2.70;;;2.30;99.90;;;;;;5016750;28;20196;-71
2023/02/03 09:43:23;;;;;;;5.27;2.80;;;2.20;99.90;;;;;;5000524;28;20195;-77
2023/02/03 09:45:50;;;;;;;4.93;2.47;;;2.00;99.90;;;;;;5016415;28;20254;-78
2023/02/03 09:48:24;;;;;;;5.80;2.53;;;2.00;99.90;;;;;;5034461;28;20219;-73
2023/02/03 09:50:52;;;;;;;6.83;3.03;;;2.00;99.90;;;;;;5016732;28;20233;-72
2023/02/03 09:53:52;;;;;;;6.90;2.87;;;2.10;99.90;;;;;;5016434;28;20645;-75
2023/02/03 09:56:33;;;;;;;5.60;2.60;;;2.00;99.90;;;;;;5005421;28;20249;-69
2023/02/03 09:59:01;;;;;;;5.80;3.00;;;2.00;99.90;;;;;;5016511;28;20185;-68
2023/02/03 10:01:40;;;;;;;5.00;2.60;;;2.10;99.90;;;;;;5034382;28;20235;-70
2023/02/03 10:04:38;;;;;;;6.70;2.17;;;2.00;99.90;;;;;;5016152;28;20195;-76
2023/02/03 10:07:24;;;;;;;4.93;2.30;;;2.10;99.90;;;;;;5034060;28;20269;-76
2023/02/03 10:10:24;;;;;;;4.03;2.03;;;2.20;99.90;;;;;;5016538;28;20226;-76
2023/02/03 10:13:02;;;;;;;3.97;1.80;;;2.30;99.90;;;;;;4953922;29;20198;-69
2023/02/03 10:15:39;;;;;;;3.07;1.53;;;2.20;99.90;;;;;;4953323;29;20199;-69
2023/02/03 10:18:12;;;;;;;3.70;1.40;;;2.30;99.90;;;;;;4953380;29;20200;-67
2023/02/03 10:20:49;;;;;;;4.20;1.73;;;2.40;99.90;;;;;;4953325;29;20217;-67
2023/02/03 10:23:21;;;;;;;3.57;1.50;;;2.30;99.90;;;;;;4952639;28;20737;-67
2023/02/03 10:25:57;;;;;;;3.57;1.53;;;2.30;99.90;;;;;;4953241;29;20209;-72
2023/02/03 10:28:29;;;;;;;4.13;1.87;;;2.30;99.90;;;;;;4953440;29;20656;-76
2023/02/03 10:30:58;;;;;;;3.97;1.90;;;2.60;99.90;;;;;;4953121;29;20228;-77
2023/02/03 10:33:30;;;;;;;3.30;1.67;;;2.70;99.90;;;;;;4953365;29;20292;-69
2023/02/03 10:36:14;;;;;;;3.23;1.57;;;2.90;99.90;;;;;;4953113;29;20205;-73
2023/02/03 10:38:51;;;;;;;3.90;1.60;;;2.80;99.90;;;;;;4953106;29;20202;-73
2023/02/03 10:41:19;;;;;;;3.33;1.67;;;3.00;99.90;;;;;;4953183;29;20663;-75
2023/02/03 10:43:52;;;;;;;3.63;1.43;;;3.10;99.90;;;;;;4952943;29;20201;-75
2023/02/03 10:46:47;;;;;;;2.00;1.30;;;2.90;99.90;;;;;;4941536;29;20234;-74
2023/02/03 10:49:15;;;;;;;2.63;1.40;;;2.90;99.90;;;;;;4937958;28;20199;-72
2023/02/03 10:51:45;;;;;;;3.73;1.60;;;2.90;99.90;;;;;;4995920;28;20701;-75
2023/02/03 10:54:31;;;;;;;4.90;1.60;;;2.80;99.90;;;;;;4979831;28;20206;-68
2023/02/03 10:57:05;;;;;;;4.63;1.77;;;2.80;99.90;;;;;;4995974;28;20669;-68
2023/02/03 10:59:40;;;;;;;7.60;2.00;;;3.10;99.90;;;;;;4995787;28;20287;-76
2023/02/03 11:02:09;;;;;;;3.23;1.77;;;3.30;99.90;;;;;;4995931;28;20223;-77
2023/02/03 11:04:36;;;;;;;3.67;1.80;;;3.00;99.90;;;;;;5013428;28;20231;-82
2023/02/03 11:07:07;;;;;;;5.43;2.13;;;3.00;99.90;;;;;;5013772;28;20284;-78
2023/02/03 11:09:44;;;;;;;3.33;1.83;;;2.90;99.90;;;;;;4995868;28;20197;-69
2023/02/03 11:12:16;;;;;;;4.00;1.80;;;2.80;99.90;;;;;;4995904;28;20722;-68
2023/02/03 11:14:47;;;;;;;4.73;1.90;;;2.80;99.90;;;;;;4996187;28;20225;-68
2023/02/03 11:17:18;;;;;;;3.80;1.70;;;2.80;99.90;;;;;;4995506;28;20192;-68
2023/02/03 11:19:47;;;;;;;5.20;1.97;;;2.70;99.90;;;;;;4995579;28;20276;-68
2023/02/03 11:22:27;;;;;;;3.50;1.80;;;2.70;99.90;;;;;;4979553;28;20642;-83
2023/02/03 11:24:55;;;;;;;3.10;1.77;;;2.80;99.90;;;;;;5013362;28;20223;-80
2023/02/03 11:27:23;;;;;;;3.40;2.00;;;2.90;99.90;;;;;;5015158;28;20619;-82
2023/02/03 11:30:06;;;;;;;6.00;2.10;;;2.80;99.90;;;;;;4998147;28;20221;-84
2023/02/03 11:32:41;;;;;;;4.20;1.77;;;2.60;99.90;;;;;;4995639;28;20204;-83
2023/02/03 11:35:18;;;;;;;4.07;2.10;;;2.50;99.90;;;;;;4995491;28;20196;-80
2023/02/03 11:37:48;;;;;;;3.93;2.13;;;2.50;99.90;;;;;;5013496;28;20270;-83
2023/02/03 11:40:16;;;;;;;4.30;2.10;;;2.40;99.90;;;;;;4995756;28;20192;-83
2023/02/03 11:42:48;;;;;;;4.00;2.20;;;2.30;99.90;;;;;;4996165;28;20203;-83
2023/02/03 11:45:25;;;;;;;4.50;2.00;;;2.30;99.90;;;;;;4998078;28;20208;-80
2023/02/03 11:48:10;;;;;;;3.83;1.83;;;2.30;99.90;;;;;;5033995;28;20199;-83
2023/02/03 11:51:01;;;;;;;4.57;2.10;;;2.10;99.90;;;;;;5032673;28;20788;-83
2023/02/03 11:53:50;;;;;;;3.20;1.90;;;2.10;99.90;;;;;;5033087;28;20199;-83
2023/02/03 11:56:45;;;;;;;2.87;1.80;;;2.20;99.90;;;;;;5015710;28;20210;-82
2023/02/03 11:59:34;;;;;;;3.87;2.13;;;2.20;99.90;;;;;;5016257;28;20637;-84
2023/02/03 12:02:47;;;;;;;5.07;2.30;;;2.10;99.90;;;;;;5020730;28;20714;-83
2023/02/03 12:05:29;;;;;;;5.37;2.40;;;2.10;99.90;;;;;;5019283;28;20362;-82
2023/02/03 12:08:21;;;;;;;4.23;2.03;;;2.20;99.90;;;;;;5033765;28;20672;-83
2023/02/03 12:11:21;;;;;;;3.13;2.00;;;2.10;99.90;;;;;;5033274;28;20211;-81
2023/02/03 12:14:16;;;;;;;4.13;2.00;;;2.20;99.90;;;;;;5015974;28;20198;-83
2023/02/03 12:16:55;;;;;;;4.97;1.83;;;2.40;99.90;;;;;;5017569;28;20218;-78
2023/02/03 12:19:28;;;;;;;3.13;1.80;;;2.40;99.90;;;;;;5032848;28;20175;-81
2023/02/03 12:22:08;;;;;;;2.87;1.87;;;2.30;99.90;;;;;;5015342;28;20298;-81
2023/02/03 12:25:06;;;;;;;4.17;2.10;;;2.30;99.90;;;;;;5033514;28;20319;-72
2023/02/03 12:27:42;;;;;;;3.90;2.10;;;2.20;99.90;;;;;;5015998;28;20218;-84
2023/02/03 12:30:28;;;;;;;4.43;2.00;;;2.20;99.90;;;;;;5016456;28;20199;-79
2023/02/03 12:33:14;;;;;;;4.23;2.00;;;2.30;99.90;;;;;;5037644;28;20272;-87
2023/02/03 12:35:51;;;;;;;4.53;2.10;;;2.40;99.90;;;;;;5018819;28;20207;-81
2023/02/03 12:38:30;;;;;;;4.57;2.30;;;2.20;99.90;;;;;;5032192;28;20210;-79
2023/02/03 12:40:59;;;;;;;2.97;2.10;;;2.10;99.90;;;;;;5032134;28;20194;-85
2023/02/03 12:43:40;;;;;;;3.20;2.20;;;2.20;99.90;;;;;;5014811;28;20209;-72
2023/02/03 12:46:23;;;;;;;4.80;2.17;;;2.20;99.90;;;;;;5014198;28;20559;-69
2023/02/03 12:48:59;;;;;;;4.67;1.97;;;2.30;99.90;;;;;;5016513;28;20227;-72
2023/02/03 12:51:53;;;;;;;6.77;2.23;;;2.30;99.90;;;;;;5034539;28;20215;-87
2023/02/03 12:54:41;;;;;;;3.30;1.90;;;2.10;99.90;;;;;;5016810;28;20198;-71
2023/02/03 12:57:19;;;;;;;2.97;2.07;;;2.20;99.90;;;;;;5034510;28;20299;-71
2023/02/03 13:00:03;;;;;;;5.20;2.17;;;2.20;99.90;;;;;;5034094;28;20189;-69
2023/02/03 13:02:40;;;;;;;4.43;2.50;;;2.10;99.90;;;;;;5016208;28;20208;-68
2023/02/03 13:05:21;;;;;;;4.57;2.60;;;2.10;99.90;;;;;;5017059;28;20206;-69
2023/02/03 13:07:56;;;;;;;4.17;2.20;;;2.00;99.90;;;;;;5034335;28;20205;-69
2023/02/03 13:10:28;;;;;;;5.53;2.57;;;2.00;99.90;;;;;;5016573;28;20564;-70
2023/02/03 13:12:58;;;;;;;4.57;2.50;;;1.90;99.90;;;;;;5017076;28;20555;-69
2023/02/03 13:15:26;;;;;;;5.10;2.50;;;1.90;99.90;;;;;;5038368;28;20175;-69
2023/02/03 13:18:14;;;;;;;6.73;2.93;;;1.80;99.90;;;;;;5035215;28;20205;-74
2023/02/03 13:20:41;;;;;;;6.37;3.00;;;1.70;99.90;;;;;;5017713;28;20213;-71